sensor_id;sensor_type;location;lat;lon;timestamp;pressure;altitude;pressure_sealevel;temperature;humidity
46583;BME280;32309;48.858;8.252;2022-12-01T00:00:25;100951.38;;;4.46;82.22
46583;BME280;32309;48.858;8.252;2022-12-01T00:02:27;100945.38;;;4.47;81.65
46583;BME280;32309;48.858;8.252;2022-12-01T00:04:28;100953.09;;;4.46;81.70
46583;BME280;32309;48.858;8.252;2022-12-01T00:06:28;100947.13;;;4.45;81.83
46583;BME280;32309;48.858;8.252;2022-12-01T00:08:29;100944.63;;;4.42;81.72
46583;BME280;32309;48.858;8.252;2022-12-01T00:10:29;100946.38;;;4.40;81.74
46583;BME280;32309;48.858;8.252;2022-12-01T00:12:30;100948.88;;;4.43;81.50
46583;BME280;32309;48.858;8.252;2022-12-01T00:14:30;100945.38;;;4.46;81.05
46583;BME280;32309;48.858;8.252;2022-12-01T00:16:31;100948.06;;;4.41;81.32
46583;BME280;32309;48.858;8.252;2022-12-01T00:18:31;100942.03;;;4.44;80.51
46583;BME280;32309;48.858;8.252;2022-12-01T00:20:32;100942.81;;;4.47;80.90
46583;BME280;32309;48.858;8.252;2022-12-01T00:22:33;100942.03;;;4.44;80.68
46583;BME280;32309;48.858;8.252;2022-12-01T00:24:33;100939.34;;;4.50;80.23
46583;BME280;32309;48.858;8.252;2022-12-01T00:26:35;100947.13;;;4.45;80.81
46583;BME280;32309;48.858;8.252;2022-12-01T00:28:37;100943.78;;;4.42;80.46
46583;BME280;32309;48.858;8.252;2022-12-01T00:30:38;100948.78;;;4.48;79.59
46583;BME280;32309;48.858;8.252;2022-12-01T00:32:38;100949.66;;;4.47;79.18
46583;BME280;32309;48.858;8.252;2022-12-01T00:34:38;100942.81;;;4.46;78.44
46583;BME280;32309;48.858;8.252;2022-12-01T00:36:39;100948.97;;;4.39;79.35
46583;BME280;32309;48.858;8.252;2022-12-01T00:38:41;100947.19;;;4.42;78.27
46583;BME280;32309;48.858;8.252;2022-12-01T00:40:42;100943.00;;;4.38;78.89
46583;BME280;32309;48.858;8.252;2022-12-01T00:42:42;100954.22;;;4.32;78.70
46583;BME280;32309;48.858;8.252;2022-12-01T00:44:42;100952.38;;;4.39;76.73
46583;BME280;32309;48.858;8.252;2022-12-01T00:46:43;100959.00;;;4.49;75.29
46583;BME280;32309;48.858;8.252;2022-12-01T00:48:43;100947.84;;;4.52;73.57
46583;BME280;32309;48.858;8.252;2022-12-01T00:50:44;100954.78;;;4.47;74.05
46583;BME280;32309;48.858;8.252;2022-12-01T00:52:44;100959.13;;;4.43;73.86
46583;BME280;32309;48.858;8.252;2022-12-01T00:54:45;100965.94;;;4.46;73.59
46583;BME280;32309;48.858;8.252;2022-12-01T00:56:45;100963.44;;;4.43;73.59
46583;BME280;32309;48.858;8.252;2022-12-01T00:58:46;100962.69;;;4.38;74.37
46583;BME280;32309;48.858;8.252;2022-12-01T01:00:46;100965.34;;;4.33;74.41
46583;BME280;32309;48.858;8.252;2022-12-01T01:02:46;100966.25;;;4.30;74.29
46583;BME280;32309;48.858;8.252;2022-12-01T01:04:46;100968.75;;;4.33;73.96
46583;BME280;32309;48.858;8.252;2022-12-01T01:06:47;100971.28;;;4.35;73.22
46583;BME280;32309;48.858;8.252;2022-12-01T01:08:47;100972.25;;;4.29;74.02
46583;BME280;32309;48.858;8.252;2022-12-01T01:10:47;100979.97;;;4.29;73.54
46583;BME280;32309;48.858;8.252;2022-12-01T01:12:48;100987.75;;;4.25;73.69
46583;BME280;32309;48.858;8.252;2022-12-01T01:14:48;100983.38;;;4.30;72.82
46583;BME280;32309;48.858;8.252;2022-12-01T01:16:48;100979.22;;;4.24;73.41
46583;BME280;32309;48.858;8.252;2022-12-01T01:18:49;100983.69;;;4.14;74.05
46583;BME280;32309;48.858;8.252;2022-12-01T01:21:00;100982.00;;;4.13;74.40
46583;BME280;32309;48.858;8.252;2022-12-01T01:23:02;100980.25;;;4.14;74.77
46583;BME280;32309;48.858;8.252;2022-12-01T01:25:02;100990.38;;;4.22;73.44
46583;BME280;32309;48.858;8.252;2022-12-01T01:27:03;100985.91;;;4.31;72.45
46583;BME280;32309;48.858;8.252;2022-12-01T01:29:05;100986.84;;;4.29;73.01
46583;BME280;32309;48.858;8.252;2022-12-01T01:31:07;100996.19;;;4.30;72.49
46583;BME280;32309;48.858;8.252;2022-12-01T01:33:10;100989.38;;;4.30;72.26
46583;BME280;32309;48.858;8.252;2022-12-01T01:35:10;100990.53;;;4.14;72.27
46583;BME280;32309;48.858;8.252;2022-12-01T01:37:10;100993.81;;;4.21;72.72
46583;BME280;32309;48.858;8.252;2022-12-01T01:39:10;100992.75;;;4.31;71.43
46583;BME280;32309;48.858;8.252;2022-12-01T01:41:11;100997.00;;;4.33;71.25
46583;BME280;32309;48.858;8.252;2022-12-01T01:43:15;100993.75;;;4.25;72.00
46583;BME280;32309;48.858;8.252;2022-12-01T01:45:36;100991.97;;;4.27;71.54
46583;BME280;32309;48.858;8.252;2022-12-01T01:47:37;100991.13;;;4.27;71.59
46583;BME280;32309;48.858;8.252;2022-12-01T01:49:39;100995.50;;;4.22;71.85
46583;BME280;32309;48.858;8.252;2022-12-01T01:51:49;101003.09;;;4.28;71.14
46583;BME280;32309;48.858;8.252;2022-12-01T01:53:52;100990.31;;;4.26;71.35
46583;BME280;32309;48.858;8.252;2022-12-01T01:55:55;100990.44;;;4.19;71.84
46583;BME280;32309;48.858;8.252;2022-12-01T01:57:56;100988.84;;;4.11;72.54
46583;BME280;32309;48.858;8.252;2022-12-01T01:59:58;100996.56;;;4.11;72.41
46583;BME280;32309;48.858;8.252;2022-12-01T02:02:05;100999.09;;;4.13;72.43
46583;BME280;32309;48.858;8.252;2022-12-01T02:04:07;100983.88;;;4.05;73.33
46583;BME280;32309;48.858;8.252;2022-12-01T02:06:08;100985.50;;;4.09;72.86
46583;BME280;32309;48.858;8.252;2022-12-01T02:08:10;100978.69;;;4.07;73.20
46583;BME280;32309;48.858;8.252;2022-12-01T02:10:13;100983.88;;;4.05;73.08
46583;BME280;32309;48.858;8.252;2022-12-01T02:12:25;100987.16;;;4.12;72.35
46583;BME280;32309;48.858;8.252;2022-12-01T02:17:21;100974.16;;;4.21;70.98
46583;BME280;32309;48.858;8.252;2022-12-01T02:31:15;100961.66;;;4.04;71.51
46583;BME280;32309;48.858;8.252;2022-12-01T02:33:39;100964.25;;;4.03;71.48
46583;BME280;32309;48.858;8.252;2022-12-01T02:35:51;100959.94;;;4.03;71.71
46583;BME280;32309;48.858;8.252;2022-12-01T02:38:02;100952.31;;;3.98;71.34
46583;BME280;32309;48.858;8.252;2022-12-01T02:42:28;100957.56;;;3.94;72.38
46583;BME280;32309;48.858;8.252;2022-12-01T02:44:48;100962.75;;;3.91;72.49
46583;BME280;32309;48.858;8.252;2022-12-01T02:46:54;100959.25;;;3.95;71.77
46583;BME280;32309;48.858;8.252;2022-12-01T02:49:00;100958.44;;;3.93;72.07
46583;BME280;32309;48.858;8.252;2022-12-01T02:51:10;100963.56;;;3.93;71.65
46583;BME280;32309;48.858;8.252;2022-12-01T02:53:17;100964.50;;;3.89;71.82
46583;BME280;32309;48.858;8.252;2022-12-01T02:55:18;100968.69;;;3.93;71.05
46583;BME280;32309;48.858;8.252;2022-12-01T02:57:19;100965.25;;;3.94;70.83
46583;BME280;32309;48.858;8.252;2022-12-01T02:59:19;100966.16;;;3.91;71.16
46583;BME280;32309;48.858;8.252;2022-12-01T03:11:19;100956.19;;;3.74;72.66
46583;BME280;32309;48.858;8.252;2022-12-01T03:15:46;100957.03;;;3.76;72.58
46583;BME280;32309;48.858;8.252;2022-12-01T03:20:21;100949.50;;;3.65;73.47
46583;BME280;32309;48.858;8.252;2022-12-01T03:22:32;100948.75;;;3.62;73.59
46583;BME280;32309;48.858;8.252;2022-12-01T03:24:39;100957.38;;;3.58;74.10
46583;BME280;32309;48.858;8.252;2022-12-01T03:26:45;100950.53;;;3.57;74.33
46583;BME280;32309;48.858;8.252;2022-12-01T03:28:49;100954.88;;;3.53;74.75
46583;BME280;32309;48.858;8.252;2022-12-01T03:30:54;100949.75;;;3.53;74.55
46583;BME280;32309;48.858;8.252;2022-12-01T03:33:05;100946.31;;;3.54;74.84
46583;BME280;32309;48.858;8.252;2022-12-01T03:35:10;100951.44;;;3.54;74.45
46583;BME280;32309;48.858;8.252;2022-12-01T03:37:20;100952.25;;;3.56;74.11
46583;BME280;32309;48.858;8.252;2022-12-01T03:39:30;100946.44;;;3.46;75.30
46583;BME280;32309;48.858;8.252;2022-12-01T03:41:36;100943.03;;;3.46;75.40
46583;BME280;32309;48.858;8.252;2022-12-01T03:43:43;100953.34;;;3.41;75.64
46583;BME280;32309;48.858;8.252;2022-12-01T03:47:52;100951.63;;;3.42;75.07
46583;BME280;32309;48.858;8.252;2022-12-01T03:49:52;100954.97;;;3.48;74.32
46583;BME280;32309;48.858;8.252;2022-12-01T03:51:58;100951.34;;;3.59;73.39
46583;BME280;32309;48.858;8.252;2022-12-01T03:57:07;100953.34;;;3.41;74.01
46583;BME280;32309;48.858;8.252;2022-12-01T03:59:10;100964.41;;;3.45;73.59
46583;BME280;32309;48.858;8.252;2022-12-01T04:01:14;100963.56;;;3.43;73.66
46583;BME280;32309;48.858;8.252;2022-12-01T04:03:18;100962.78;;;3.41;73.20
46583;BME280;32309;48.858;8.252;2022-12-01T04:05:21;100973.06;;;3.38;73.49
46583;BME280;32309;48.858;8.252;2022-12-01T04:07:21;100968.00;;;3.35;73.84
46583;BME280;32309;48.858;8.252;2022-12-01T04:09:22;100971.50;;;3.29;74.02
46583;BME280;32309;48.858;8.252;2022-12-01T04:11:22;100967.31;;;3.25;74.39
46583;BME280;32309;48.858;8.252;2022-12-01T04:13:41;100963.06;;;3.22;74.37
46583;BME280;32309;48.858;8.252;2022-12-01T04:15:41;100963.88;;;3.24;74.42
46583;BME280;32309;48.858;8.252;2022-12-01T04:17:42;100972.44;;;3.25;74.32
46583;BME280;32309;48.858;8.252;2022-12-01T04:19:44;100961.28;;;3.26;74.33
46583;BME280;32309;48.858;8.252;2022-12-01T04:21:44;100965.66;;;3.19;74.55
46583;BME280;32309;48.858;8.252;2022-12-01T04:23:44;100970.78;;;3.19;74.92
46583;BME280;32309;48.858;8.252;2022-12-01T04:26:01;100971.69;;;3.18;75.00
46583;BME280;32309;48.858;8.252;2022-12-01T04:28:03;100969.06;;;3.21;74.79
46583;BME280;32309;48.858;8.252;2022-12-01T04:30:04;100971.69;;;3.16;75.04
46583;BME280;32309;48.858;8.252;2022-12-01T04:32:05;100976.84;;;3.15;75.42
46583;BME280;32309;48.858;8.252;2022-12-01T04:34:06;100970.81;;;3.17;74.87
46583;BME280;32309;48.858;8.252;2022-12-01T04:36:07;100985.34;;;3.17;74.66
46583;BME280;32309;48.858;8.252;2022-12-01T04:38:07;100979.44;;;3.12;74.99
46583;BME280;32309;48.858;8.252;2022-12-01T04:40:08;100970.94;;;3.10;75.07
46583;BME280;32309;48.858;8.252;2022-12-01T04:42:09;100976.06;;;3.10;74.89
46583;BME280;32309;48.858;8.252;2022-12-01T04:44:10;100964.97;;;3.09;75.13
46583;BME280;32309;48.858;8.252;2022-12-01T04:46:10;100972.75;;;3.03;75.56
46583;BME280;32309;48.858;8.252;2022-12-01T04:48:11;100976.13;;;3.07;75.11
46583;BME280;32309;48.858;8.252;2022-12-01T04:50:11;100982.09;;;3.06;75.23
46583;BME280;32309;48.858;8.252;2022-12-01T04:52:11;100975.34;;;3.02;75.19
46583;BME280;32309;48.858;8.252;2022-12-01T04:54:12;100978.72;;;3.02;75.62
46583;BME280;32309;48.858;8.252;2022-12-01T04:56:12;100983.88;;;3.00;75.83
46583;BME280;32309;48.858;8.252;2022-12-01T04:58:13;100983.00;;;3.02;76.15
46583;BME280;32309;48.858;8.252;2022-12-01T05:00:13;100982.97;;;3.05;75.84
46583;BME280;32309;48.858;8.252;2022-12-01T05:02:14;100982.09;;;3.06;75.83
46583;BME280;32309;48.858;8.252;2022-12-01T05:04:14;100986.41;;;3.04;76.07
46583;BME280;32309;48.858;8.252;2022-12-01T05:06:18;100976.97;;;3.06;76.30
46583;BME280;32309;48.858;8.252;2022-12-01T05:08:21;100979.50;;;3.07;76.24
46583;BME280;32309;48.858;8.252;2022-12-01T05:10:21;100987.94;;;3.14;75.90
46583;BME280;32309;48.858;8.252;2022-12-01T05:12:21;100981.16;;;3.11;75.54
46583;BME280;32309;48.858;8.252;2022-12-01T05:14:22;100985.38;;;3.15;75.58
46583;BME280;32309;48.858;8.252;2022-12-01T05:16:32;100992.28;;;3.10;76.00
46583;BME280;32309;48.858;8.252;2022-12-01T05:18:33;100995.63;;;3.14;75.97
46583;BME280;32309;48.858;8.252;2022-12-01T05:20:33;100991.41;;;3.13;76.11
46583;BME280;32309;48.858;8.252;2022-12-01T05:22:56;100996.44;;;3.17;75.15
46583;BME280;32309;48.858;8.252;2022-12-01T05:24:56;100988.78;;;3.16;75.33
46583;BME280;32309;48.858;8.252;2022-12-01T05:26:57;100999.06;;;3.14;75.95
46583;BME280;32309;48.858;8.252;2022-12-01T05:28:57;100994.75;;;3.16;75.52
46583;BME280;32309;48.858;8.252;2022-12-01T05:30:57;100999.00;;;3.17;75.56
46583;BME280;32309;48.858;8.252;2022-12-01T05:32:58;100995.66;;;3.12;75.82
46583;BME280;32309;48.858;8.252;2022-12-01T05:34:58;101000.75;;;3.15;76.05
46583;BME280;32309;48.858;8.252;2022-12-01T05:36:58;100999.81;;;3.21;75.11
46583;BME280;32309;48.858;8.252;2022-12-01T05:38:58;100999.88;;;3.18;75.35
46583;BME280;32309;48.858;8.252;2022-12-01T05:40:59;101003.31;;;3.15;75.37
46583;BME280;32309;48.858;8.252;2022-12-01T05:42:59;101001.63;;;3.14;75.74
46583;BME280;32309;48.858;8.252;2022-12-01T05:44:59;101000.63;;;3.22;74.84
46583;BME280;32309;48.858;8.252;2022-12-01T05:47:00;100998.94;;;3.21;74.87
46583;BME280;32309;48.858;8.252;2022-12-01T05:49:00;100996.38;;;3.21;74.89
46583;BME280;32309;48.858;8.252;2022-12-01T05:51:08;100995.56;;;3.19;75.09
46583;BME280;32309;48.858;8.252;2022-12-01T05:53:10;101003.31;;;3.15;75.33
46583;BME280;32309;48.858;8.252;2022-12-01T05:55:11;100999.88;;;3.15;75.34
46583;BME280;32309;48.858;8.252;2022-12-01T05:57:12;101009.31;;;3.14;75.89
46583;BME280;32309;48.858;8.252;2022-12-01T05:59:12;101004.91;;;3.23;75.35
46583;BME280;32309;48.858;8.252;2022-12-01T06:01:12;100996.41;;;3.19;75.28
46583;BME280;32309;48.858;8.252;2022-12-01T06:03:13;101007.53;;;3.20;75.30
46583;BME280;32309;48.858;8.252;2022-12-01T06:05:13;100999.00;;;3.17;75.50
46583;BME280;32309;48.858;8.252;2022-12-01T06:07:13;101013.56;;;3.15;75.80
46583;BME280;32309;48.858;8.252;2022-12-01T06:09:14;101010.16;;;3.13;76.41
46583;BME280;32309;48.858;8.252;2022-12-01T06:11:14;101007.63;;;3.12;76.34
46583;BME280;32309;48.858;8.252;2022-12-01T06:13:15;101006.78;;;3.10;76.66
46583;BME280;32309;48.858;8.252;2022-12-01T06:15:15;101008.50;;;3.11;76.98
46583;BME280;32309;48.858;8.252;2022-12-01T06:17:15;101010.06;;;3.21;76.23
46583;BME280;32309;48.858;8.252;2022-12-01T06:19:16;101011.69;;;3.25;76.88
46583;BME280;32309;48.858;8.252;2022-12-01T06:21:16;101013.28;;;3.34;76.39
46583;BME280;32309;48.858;8.252;2022-12-01T06:23:16;101010.72;;;3.34;76.08
46583;BME280;32309;48.858;8.252;2022-12-01T06:25:17;101011.53;;;3.36;75.45
46583;BME280;32309;48.858;8.252;2022-12-01T06:27:17;101014.22;;;3.27;75.82
46583;BME280;32309;48.858;8.252;2022-12-01T06:29:17;101006.69;;;3.17;76.43
46583;BME280;32309;48.858;8.252;2022-12-01T06:31:17;101005.75;;;3.22;76.68
46583;BME280;32309;48.858;8.252;2022-12-01T06:33:18;101010.84;;;3.25;76.29
46583;BME280;32309;48.858;8.252;2022-12-01T06:35:18;101005.75;;;3.22;76.30
46583;BME280;32309;48.858;8.252;2022-12-01T06:37:18;101017.81;;;3.15;76.68
46583;BME280;32309;48.858;8.252;2022-12-01T06:39:18;101018.75;;;3.11;77.21
46583;BME280;32309;48.858;8.252;2022-12-01T06:41:19;101021.25;;;3.14;77.00
46583;BME280;32309;48.858;8.252;2022-12-01T06:43:19;101016.25;;;3.06;77.67
46583;BME280;32309;48.858;8.252;2022-12-01T06:45:19;101017.97;;;3.04;78.04
46583;BME280;32309;48.858;8.252;2022-12-01T06:47:20;101011.91;;;3.10;77.64
46583;BME280;32309;48.858;8.252;2022-12-01T06:49:20;101027.97;;;3.21;76.91
46583;BME280;32309;48.858;8.252;2022-12-01T06:51:20;101028.97;;;3.12;77.22
46583;BME280;32309;48.858;8.252;2022-12-01T06:53:20;101031.50;;;3.14;77.62
46583;BME280;32309;48.858;8.252;2022-12-01T06:55:21;101030.59;;;3.16;77.50
46583;BME280;32309;48.858;8.252;2022-12-01T06:57:21;101029.81;;;3.13;78.06
46583;BME280;32309;48.858;8.252;2022-12-01T06:59:21;101031.38;;;3.22;77.04
46583;BME280;32309;48.858;8.252;2022-12-01T07:01:22;101032.31;;;3.16;77.75
46583;BME280;32309;48.858;8.252;2022-12-01T07:03:22;101023.84;;;3.11;77.71
46583;BME280;32309;48.858;8.252;2022-12-01T07:05:23;101029.03;;;3.08;78.16
46583;BME280;32309;48.858;8.252;2022-12-01T07:07:23;101031.63;;;3.06;78.22
46583;BME280;32309;48.858;8.252;2022-12-01T07:09:23;101036.72;;;3.08;78.28
46583;BME280;32309;48.858;8.252;2022-12-01T07:11:24;101034.91;;;3.14;77.92
46583;BME280;32309;48.858;8.252;2022-12-01T07:13:24;101034.06;;;3.14;77.96
46583;BME280;32309;48.858;8.252;2022-12-01T07:15:24;101034.03;;;3.17;77.32
46583;BME280;32309;48.858;8.252;2022-12-01T07:17:27;101040.09;;;3.10;78.06
46583;BME280;32309;48.858;8.252;2022-12-01T07:19:28;101035.84;;;3.07;78.17
46583;BME280;32309;48.858;8.252;2022-12-01T07:21:28;101038.44;;;3.06;78.47
46583;BME280;32309;48.858;8.252;2022-12-01T07:23:29;101039.31;;;3.06;78.93
46583;BME280;32309;48.858;8.252;2022-12-01T07:25:30;101040.09;;;3.10;78.88
46583;BME280;32309;48.858;8.252;2022-12-01T07:27:30;101045.19;;;3.13;78.41
46583;BME280;32309;48.858;8.252;2022-12-01T07:29:30;101049.53;;;3.08;78.97
46583;BME280;32309;48.858;8.252;2022-12-01T07:31:30;101045.25;;;3.08;79.31
46583;BME280;32309;48.858;8.252;2022-12-01T07:33:31;101046.06;;;3.10;79.28
46583;BME280;32309;48.858;8.252;2022-12-01T07:35:31;101053.72;;;3.12;79.54
46583;BME280;32309;48.858;8.252;2022-12-01T07:37:32;101049.44;;;3.15;79.65
46583;BME280;32309;48.858;8.252;2022-12-01T07:39:32;101046.81;;;3.19;79.89
46583;BME280;32309;48.858;8.252;2022-12-01T07:41:33;101046.75;;;3.22;79.98
46583;BME280;32309;48.858;8.252;2022-12-01T07:43:34;101050.13;;;3.25;80.01
46583;BME280;32309;48.858;8.252;2022-12-01T07:45:35;101055.19;;;3.28;80.17
46583;BME280;32309;48.858;8.252;2022-12-01T07:47:35;101055.19;;;3.28;80.07
46583;BME280;32309;48.858;8.252;2022-12-01T07:49:36;101062.03;;;3.28;80.48
46583;BME280;32309;48.858;8.252;2022-12-01T07:51:36;101062.03;;;3.29;79.98
46583;BME280;32309;48.858;8.252;2022-12-01T07:53:37;101061.06;;;3.35;79.07
46583;BME280;32309;48.858;8.252;2022-12-01T07:55:38;101059.16;;;3.51;77.28
46583;BME280;32309;48.858;8.252;2022-12-01T07:57:38;101059.28;;;3.40;77.51
46583;BME280;32309;48.858;8.252;2022-12-01T07:59:38;101065.34;;;3.36;77.90
46583;BME280;32309;48.858;8.252;2022-12-01T08:01:38;101063.63;;;3.35;78.26
46583;BME280;32309;48.858;8.252;2022-12-01T08:03:39;101068.91;;;3.27;78.75
46583;BME280;32309;48.858;8.252;2022-12-01T08:05:40;101069.66;;;3.32;78.55
46583;BME280;32309;48.858;8.252;2022-12-01T08:07:40;101071.41;;;3.30;78.90
46583;BME280;32309;48.858;8.252;2022-12-01T08:09:41;101072.25;;;3.31;79.14
46583;BME280;32309;48.858;8.252;2022-12-01T08:12:08;101072.06;;;3.45;77.88
46583;BME280;32309;48.858;8.252;2022-12-01T08:14:32;101067.00;;;3.39;77.82
46583;BME280;32309;48.858;8.252;2022-12-01T08:16:35;101067.97;;;3.31;78.64
46583;BME280;32309;48.858;8.252;2022-12-01T08:18:36;101067.94;;;3.33;78.18
46583;BME280;32309;48.858;8.252;2022-12-01T08:20:47;101068.72;;;3.38;78.34
46583;BME280;32309;48.858;8.252;2022-12-01T08:22:48;101072.16;;;3.37;77.88
46583;BME280;32309;48.858;8.252;2022-12-01T08:24:48;101064.53;;;3.34;78.00
46583;BME280;32309;48.858;8.252;2022-12-01T08:27:31;101073.94;;;3.32;78.34
46583;BME280;32309;48.858;8.252;2022-12-01T08:29:35;101071.34;;;3.33;77.71
46583;BME280;32309;48.858;8.252;2022-12-01T08:31:35;101067.16;;;3.29;78.06
46583;BME280;32309;48.858;8.252;2022-12-01T08:33:39;101079.97;;;3.28;78.51
46583;BME280;32309;48.858;8.252;2022-12-01T08:35:42;101080.81;;;3.28;78.64
46583;BME280;32309;48.858;8.252;2022-12-01T08:37:42;101082.47;;;3.34;78.21
46583;BME280;32309;48.858;8.252;2022-12-01T08:39:42;101079.00;;;3.37;77.77
46583;BME280;32309;48.858;8.252;2022-12-01T08:41:43;101079.88;;;3.36;78.23
46583;BME280;32309;48.858;8.252;2022-12-01T08:43:45;101086.66;;;3.40;77.70
46583;BME280;32309;48.858;8.252;2022-12-01T08:45:49;101083.19;;;3.42;77.34
46583;BME280;32309;48.858;8.252;2022-12-01T08:47:49;101086.66;;;3.38;77.59
46583;BME280;32309;48.858;8.252;2022-12-01T08:49:51;101091.78;;;3.38;77.49
46583;BME280;32309;48.858;8.252;2022-12-01T08:51:52;101093.47;;;3.41;77.39
46583;BME280;32309;48.858;8.252;2022-12-01T08:53:53;101096.09;;;3.35;78.12
46583;BME280;32309;48.858;8.252;2022-12-01T08:55:54;101085.03;;;3.32;78.60
46583;BME280;32309;48.858;8.252;2022-12-01T08:57:54;101086.69;;;3.35;78.42
46583;BME280;32309;48.858;8.252;2022-12-01T08:59:54;101091.75;;;3.41;77.99
46583;BME280;32309;48.858;8.252;2022-12-01T09:01:55;101092.59;;;3.43;77.69
46583;BME280;32309;48.858;8.252;2022-12-01T09:03:56;101097.78;;;3.37;78.22
46583;BME280;32309;48.858;8.252;2022-12-01T09:06:11;101105.44;;;3.39;78.23
46583;BME280;32309;48.858;8.252;2022-12-01T09:08:16;101094.38;;;3.35;78.69
46583;BME280;32309;48.858;8.252;2022-12-01T09:10:32;101106.28;;;3.41;78.32
46583;BME280;32309;48.858;8.252;2022-12-01T09:12:33;101103.66;;;3.44;77.67
46583;BME280;32309;48.858;8.252;2022-12-01T09:14:41;101102.81;;;3.42;77.41
46583;BME280;32309;48.858;8.252;2022-12-01T09:16:47;101097.72;;;3.40;77.81
46583;BME280;32309;48.858;8.252;2022-12-01T09:18:49;101103.69;;;3.42;77.38
46583;BME280;32309;48.858;8.252;2022-12-01T09:20:49;101097.69;;;3.45;77.33
46583;BME280;32309;48.858;8.252;2022-12-01T09:22:49;101100.16;;;3.49;76.42
46583;BME280;32309;48.858;8.252;2022-12-01T09:24:50;101104.50;;;3.44;77.04
46583;BME280;32309;48.858;8.252;2022-12-01T09:26:53;101102.66;;;3.54;76.14
46583;BME280;32309;48.858;8.252;2022-12-01T09:28:55;101101.94;;;3.44;76.76
46583;BME280;32309;48.858;8.252;2022-12-01T09:31:02;101098.38;;;3.55;76.19
46583;BME280;32309;48.858;8.252;2022-12-01T09:33:04;101100.19;;;3.48;76.56
46583;BME280;32309;48.858;8.252;2022-12-01T09:35:04;101103.59;;;3.50;76.29
46583;BME280;32309;48.858;8.252;2022-12-01T09:37:04;101108.59;;;3.56;76.16
46583;BME280;32309;48.858;8.252;2022-12-01T09:39:06;101105.16;;;3.57;75.87
46583;BME280;32309;48.858;8.252;2022-12-01T09:41:12;101099.34;;;3.47;76.49
46583;BME280;32309;48.858;8.252;2022-12-01T09:43:19;101102.78;;;3.46;76.48
46583;BME280;32309;48.858;8.252;2022-12-01T09:45:27;101101.97;;;3.43;76.93
46583;BME280;32309;48.858;8.252;2022-12-01T09:47:34;101100.25;;;3.42;77.60
46583;BME280;32309;48.858;8.252;2022-12-01T09:51:55;101095.91;;;3.50;76.64
46583;BME280;32309;48.858;8.252;2022-12-01T09:53:59;101086.56;;;3.46;77.17
46583;BME280;32309;48.858;8.252;2022-12-01T09:55:59;101095.94;;;3.48;77.27
46583;BME280;32309;48.858;8.252;2022-12-01T09:58:01;101093.38;;;3.45;77.03
46583;BME280;32309;48.858;8.252;2022-12-01T10:00:06;101093.34;;;3.47;77.71
46583;BME280;32309;48.858;8.252;2022-12-01T10:02:56;101093.34;;;3.50;77.22
46583;BME280;32309;48.858;8.252;2022-12-01T10:04:43;101093.19;;;3.59;76.57
46583;BME280;32309;48.858;8.252;2022-12-01T10:06:48;101083.81;;;3.58;76.23
46583;BME280;32309;48.858;8.252;2022-12-01T10:09:40;101084.78;;;3.51;76.97
46583;BME280;32309;48.858;8.252;2022-12-01T10:11:27;101080.41;;;3.56;76.64
46583;BME280;32309;48.858;8.252;2022-12-01T10:13:30;101074.53;;;3.51;76.93
46583;BME280;32309;48.858;8.252;2022-12-01T10:17:41;101074.41;;;3.57;76.39
46583;BME280;32309;48.858;8.252;2022-12-01T10:20:27;101071.03;;;3.55;76.66
46583;BME280;32309;48.858;8.252;2022-12-01T10:29:11;101064.28;;;3.51;76.73
46583;BME280;32309;48.858;8.252;2022-12-01T10:33:34;101059.91;;;3.56;76.68
46583;BME280;32309;48.858;8.252;2022-12-01T10:35:44;101052.25;;;3.55;76.73
46583;BME280;32309;48.858;8.252;2022-12-01T10:37:45;101047.09;;;3.55;77.41
46583;BME280;32309;48.858;8.252;2022-12-01T10:39:48;101044.53;;;3.58;76.87
46583;BME280;32309;48.858;8.252;2022-12-01T10:41:50;101041.06;;;3.59;76.57
46583;BME280;32309;48.858;8.252;2022-12-01T10:43:53;101041.91;;;3.61;76.30
46583;BME280;32309;48.858;8.252;2022-12-01T10:45:56;101040.13;;;3.64;76.21
46583;BME280;32309;48.858;8.252;2022-12-01T10:50:08;101052.22;;;3.58;76.78
46583;BME280;32309;48.858;8.252;2022-12-01T10:54:33;101041.84;;;3.64;76.25
46583;BME280;32309;48.858;8.252;2022-12-01T10:56:34;101034.22;;;3.59;76.36
46583;BME280;32309;48.858;8.252;2022-12-01T11:00:53;101034.25;;;3.58;76.98
46583;BME280;32309;48.858;8.252;2022-12-01T11:02:55;101024.00;;;3.58;77.18
46583;BME280;32309;48.858;8.252;2022-12-01T11:04:57;101027.41;;;3.58;77.25
46583;BME280;32309;48.858;8.252;2022-12-01T11:06:58;101018.88;;;3.56;77.33
46583;BME280;32309;48.858;8.252;2022-12-01T11:09:03;101015.44;;;3.59;77.52
46583;BME280;32309;48.858;8.252;2022-12-01T11:11:05;101021.34;;;3.62;77.35
46583;BME280;32309;48.858;8.252;2022-12-01T11:13:23;101018.72;;;3.65;77.04
46583;BME280;32309;48.858;8.252;2022-12-01T11:15:30;101010.94;;;3.72;75.98
46583;BME280;32309;48.858;8.252;2022-12-01T11:17:35;101017.03;;;3.66;76.60
46583;BME280;32309;48.858;8.252;2022-12-01T11:19:41;101009.34;;;3.66;76.96
46583;BME280;32309;48.858;8.252;2022-12-01T11:21:45;101010.22;;;3.65;77.29
46583;BME280;32309;48.858;8.252;2022-12-01T11:23:51;100999.94;;;3.65;76.88
46583;BME280;32309;48.858;8.252;2022-12-01T11:28:02;100999.75;;;3.76;76.61
46583;BME280;32309;48.858;8.252;2022-12-01T11:30:05;101005.75;;;3.76;76.37
46583;BME280;32309;48.858;8.252;2022-12-01T11:32:16;100990.41;;;3.73;76.38
46583;BME280;32309;48.858;8.252;2022-12-01T11:34:23;101002.41;;;3.71;76.61
46583;BME280;32309;48.858;8.252;2022-12-01T11:36:41;101000.72;;;3.70;77.04
46583;BME280;32309;48.858;8.252;2022-12-01T11:38:44;100996.38;;;3.75;76.51
46583;BME280;32309;48.858;8.252;2022-12-01T11:40:47;101000.69;;;3.72;76.82
46583;BME280;32309;48.858;8.252;2022-12-01T11:47:15;100997.31;;;3.70;77.81
46583;BME280;32309;48.858;8.252;2022-12-01T11:49:29;100998.09;;;3.73;77.80
46583;BME280;32309;48.858;8.252;2022-12-01T11:51:32;100991.16;;;3.78;77.08
46583;BME280;32309;48.858;8.252;2022-12-01T11:53:42;100988.56;;;3.80;76.82
46583;BME280;32309;48.858;8.252;2022-12-01T11:55:48;100981.75;;;3.80;76.78